Time;durP1;ratioP1;P1;durP2;ratioP2;P2;SDS_P1;SDS_P2;PMS_P1;PMS_P2;Temp;Humidity;BMP_temperature;BMP_pressure;BME280_temperature;BME280_humidity;BME280_pressure;Samples;Min_cycle;Max_cycle;Signal;HPM_P1;HPM_P2
2024/02/23 00:01:00;;;;;;;;;;;;;;;11.50;54.98;97949.28;4917636;28;99817;-71
2024/02/23 00:03:27;;;;;;;;;;;;;;;11.55;55.13;97937.50;4908702;28;98457;-67
2024/02/23 00:05:58;;;;;;;;;;;;;;;11.58;54.95;97950.31;4921586;28;98190;-67
2024/02/23 00:08:24;;;;;;;;;;;;;;;11.61;54.98;97951.56;4906620;28;98805;-71
2024/02/23 00:10:50;;;;;;;;;;;;;;;11.63;55.16;97958.22;4911596;28;98689;-71
2024/02/23 00:13:17;;;;;;;;;;;;;;;11.65;55.06;97961.34;4922954;28;97934;-67
2024/02/23 00:15:43;;;;;;;;;;;;;;;11.66;54.92;97957.53;4936542;28;98340;-71
2024/02/23 00:18:12;;;;;;;;;;;;;;;11.67;55.07;97964.53;4921976;28;99378;-71
2024/02/23 00:20:38;;;;;;;;;;;;;;;11.68;55.16;97974.19;4922786;28;98413;-71
2024/02/23 00:23:06;;;;;;;;;;;;;;;11.69;55.02;97966.88;4922881;28;106468;-67
2024/02/23 00:25:33;;;;;;;;;;;;;;;11.70;55.00;97966.53;4907771;28;98028;-67
2024/02/23 00:28:00;;;;;;;;;;;;;;;11.71;55.28;97960.03;4932015;28;98551;-67
2024/02/23 00:30:27;;;;;;;;;;;;;;;11.70;55.23;97969.22;4920335;28;98463;-71
2024/02/23 00:32:55;;;;;;;;;;;;;;;11.71;55.01;97967.31;4926874;28;98340;-67
2024/02/23 00:35:23;;;;;;;;;;;;;;;11.72;54.98;97955.41;4902061;28;98824;-67
2024/02/23 00:37:49;;;;;;;;;;;;;;;11.72;54.94;97950.81;4923516;28;98377;-71
2024/02/23 00:40:16;;;;;;;;;;;;;;;11.72;55.10;97950.81;4909507;28;99011;-71
2024/02/23 00:42:42;;;;;;;;;;;;;;;11.72;55.10;97942.72;4918493;28;97976;-71
2024/02/23 00:45:11;;;;;;;;;;;;;;;11.72;54.99;97940.00;4937836;28;98090;-67
2024/02/23 00:47:38;;;;;;;;;;;;;;;11.73;54.96;97930.00;4938797;28;98347;-71
2024/02/23 00:50:05;;;;;;;;;;;;;;;11.72;54.91;97923.03;4907388;28;98408;-71
2024/02/23 00:52:32;;;;;;;;;;;;;;;11.73;55.20;97940.78;4912062;28;98027;-69
2024/02/23 00:55:01;;;;;;;;;;;;;;;11.72;55.16;97940.00;4920122;28;99653;-67
2024/02/23 00:57:29;;;;;;;;;;;;;;;11.72;55.14;97942.72;4912815;28;98421;-67
2024/02/23 00:59:57;;;;;;;;;;;;;;;11.71;55.01;97943.03;4942888;28;100117;-71
2024/02/23 01:02:23;;;;;;;;;;;;;;;11.72;55.13;97940.00;4929581;28;98248;-71
2024/02/23 01:04:50;;;;;;;;;;;;;;;11.73;55.08;97938.09;4904413;28;97918;-71
2024/02/23 01:07:16;;;;;;;;;;;;;;;11.73;55.03;97946.19;4940447;28;99851;-67
2024/02/23 01:09:43;;;;;;;;;;;;;;;11.72;55.08;97945.41;4919491;28;98524;-67
2024/02/23 01:12:10;;;;;;;;;;;;;;;11.73;55.03;97935.41;4908208;28;98278;-72
2024/02/23 01:14:37;;;;;;;;;;;;;;;11.74;55.10;97948.53;4924221;28;97986;-71
2024/02/23 01:17:04;;;;;;;;;;;;;;;11.74;54.97;97940.44;4927624;28;98336;-71
2024/02/23 01:19:32;;;;;;;;;;;;;;;11.74;55.10;97962.03;4907582;28;98528;-67
2024/02/23 01:21:59;;;;;;;;;;;;;;;11.75;55.02;97960.13;4914165;28;101829;-71
2024/02/23 01:24:30;;;;;;;;;;;;;;;11.76;55.11;97980.59;4927598;28;98079;-71
2024/02/23 01:26:57;;;;;;;;;;;;;;;11.76;55.08;97980.59;4944734;28;98365;-67
2024/02/23 01:29:25;;;;;;;;;;;;;;;11.75;55.33;97996.03;4929965;28;98224;-71
2024/02/23 01:31:54;;;;;;;;;;;;;;;11.78;54.98;98002.63;4919481;28;98112;-67
2024/02/23 01:34:21;;;;;;;;;;;;;;;11.77;54.96;98007.25;4921082;28;98518;-67
2024/02/23 01:36:50;;;;;;;;;;;;;;;11.78;54.89;98022.31;4925584;28;98222;-67
2024/02/23 01:39:17;;;;;;;;;;;;;;;11.78;54.86;97999.94;4943608;28;98275;-71
2024/02/23 01:41:45;;;;;;;;;;;;;;;11.78;54.91;98002.63;4931890;28;98002;-71
2024/02/23 01:44:15;;;;;;;;;;;;;;;11.79;55.04;98017.72;4925471;28;98523;-71
2024/02/23 01:46:45;;;;;;;;;;;;;;;11.79;55.07;98023.13;4910300;28;98417;-67
2024/02/23 01:49:12;;;;;;;;;;;;;;;11.79;55.01;98042.03;4910387;28;98237;-71
2024/02/23 01:51:39;;;;;;;;;;;;;;;11.79;54.92;98040.09;4923706;28;98280;-71
2024/02/23 01:54:06;;;;;;;;;;;;;;;11.80;54.91;98057.88;4911041;28;98032;-71
2024/02/23 01:56:36;;;;;;;;;;;;;;;11.79;54.94;98072.50;4918433;28;98151;-71
2024/02/23 01:59:05;;;;;;;;;;;;;;;11.80;55.04;98084.88;4909565;28;98323;-71
2024/02/23 02:01:32;;;;;;;;;;;;;;;11.81;54.93;98096.44;4929684;28;98684;-70
2024/02/23 02:04:06;;;;;;;;;;;;;;;11.82;54.97;98108.03;4924057;28;98043;-67
2024/02/23 02:06:32;;;;;;;;;;;;;;;11.82;54.99;98113.44;4939513;28;98177;-71
2024/02/23 02:08:59;;;;;;;;;;;;;;;11.83;54.93;98115.84;4909535;28;99251;-71
2024/02/23 02:11:26;;;;;;;;;;;;;;;11.83;54.99;98121.25;4921997;28;98143;-71
2024/02/23 02:13:54;;;;;;;;;;;;;;;11.84;55.01;98116.63;4906757;28;99500;-72
2024/02/23 02:16:21;;;;;;;;;;;;;;;11.83;54.93;98113.13;4925666;28;98374;-71
2024/02/23 02:18:48;;;;;;;;;;;;;;;11.84;54.99;98117.41;4914003;28;101033;-71
2024/02/23 02:21:14;;;;;;;;;;;;;;;11.84;54.84;98130.91;4924617;28;97973;-67
2024/02/23 02:23:42;;;;;;;;;;;;;;;11.84;54.82;98138.22;4910576;28;98132;-67
2024/02/23 02:26:09;;;;;;;;;;;;;;;11.84;54.86;98139.00;4941761;28;98259;-71
2024/02/23 02:28:35;;;;;;;;;;;;;;;11.85;55.04;98135.19;4940115;28;98860;-71
2024/02/23 02:31:03;;;;;;;;;;;;;;;11.84;55.01;98128.22;4906161;28;99921;-67
2024/02/23 02:33:29;;;;;;;;;;;;;;;11.85;54.94;98123.59;4918620;28;98240;-71
2024/02/23 02:35:56;;;;;;;;;;;;;;;11.85;54.96;98132.47;4920469;28;98207;-71
2024/02/23 02:38:23;;;;;;;;;;;;;;;11.85;54.87;98142.50;4924945;28;98740;-71
2024/02/23 02:40:51;;;;;;;;;;;;;;;11.85;54.97;98156.78;4945144;28;98365;-71
2024/02/23 02:43:18;;;;;;;;;;;;;;;11.85;54.92;98156.78;4924687;28;100163;-71
2024/02/23 02:45:44;;;;;;;;;;;;;;;11.83;54.83;98161.72;4946681;28;99247;-67
2024/02/23 02:48:16;;;;;;;;;;;;;;;11.85;55.27;98166.78;4928729;28;99988;-67
2024/02/23 02:50:43;;;;;;;;;;;;;;;11.85;54.96;98172.19;4943629;28;98241;-71
2024/02/23 02:53:11;;;;;;;;;;;;;;;11.84;55.12;98174.09;4927291;28;98076;-67
2024/02/23 02:55:41;;;;;;;;;;;;;;;11.84;55.01;98182.19;4905434;28;99899;-71
2024/02/23 02:58:09;;;;;;;;;;;;;;;11.84;54.81;98187.59;4954244;28;98119;-67
2024/02/23 03:00:37;;;;;;;;;;;;;;;11.84;54.83;98181.41;4921803;28;99353;-67
2024/02/23 03:03:08;;;;;;;;;;;;;;;11.84;54.83;98203.00;4927209;28;97975;-67
2024/02/23 03:05:35;;;;;;;;;;;;;;;11.84;54.94;98194.91;4940086;28;98440;-67
2024/02/23 03:08:02;;;;;;;;;;;;;;;11.84;54.92;98208.41;4912348;28;98607;-71
2024/02/23 03:10:29;;;;;;;;;;;;;;;11.83;54.76;98212.16;4931528;28;97897;-70
2024/02/23 03:12:56;;;;;;;;;;;;;;;11.83;54.66;98220.25;4921628;28;97981;-67
2024/02/23 03:15:22;;;;;;;;;;;;;;;11.82;54.80;98216.00;4947929;28;98635;-71
2024/02/23 03:17:49;;;;;;;;;;;;;;;11.81;54.99;98228.69;4909366;28;98218;-71
2024/02/23 03:20:19;;;;;;;;;;;;;;;11.81;54.93;98231.41;4911739;28;98312;-67
2024/02/23 03:22:47;;;;;;;;;;;;;;;11.80;54.80;98225.22;4921766;28;98668;-70
2024/02/23 03:25:18;;;;;;;;;;;;;;;11.80;54.82;98232.53;4927337;28;98268;-68
2024/02/23 03:27:45;;;;;;;;;;;;;;;11.79;54.93;98239.84;4919974;28;98172;-71
2024/02/23 03:30:12;;;;;;;;;;;;;;;11.79;54.92;98239.06;4905747;28;98353;-67
2024/02/23 03:32:40;;;;;;;;;;;;;;;11.77;54.88;98252.06;4909333;28;97924;-66
2024/02/23 03:35:08;;;;;;;;;;;;;;;11.78;54.93;98264.44;4908352;28;98460;-67
2024/02/23 03:37:37;;;;;;;;;;;;;;;11.77;54.94;98273.66;4925578;28;98200;-67
2024/02/23 03:40:05;;;;;;;;;;;;;;;11.76;54.64;98272.88;4933098;28;98609;-71
2024/02/23 03:42:33;;;;;;;;;;;;;;;11.75;54.83;98283.97;4909792;28;98067;-67
2024/02/23 03:45:01;;;;;;;;;;;;;;;11.74;55.07;98280.50;4907543;28;98316;-67
2024/02/23 03:47:28;;;;;;;;;;;;;;;11.75;54.93;98300.19;4938258;28;99685;-71
2024/02/23 03:49:55;;;;;;;;;;;;;;;11.74;54.95;98304.00;4908497;28;97881;-71
2024/02/23 03:52:22;;;;;;;;;;;;;;;11.73;54.94;98315.94;4919208;28;98214;-67
2024/02/23 03:54:49;;;;;;;;;;;;;;;11.73;54.92;98332.13;4917461;28;98124;-70
2024/02/23 03:57:15;;;;;;;;;;;;;;;11.70;54.91;98338.94;4923470;28;98251;-71
2024/02/23 04:00:07;;;;;;;;;;;;;;;11.70;54.71;98352.44;4908091;28;97993;-71
2024/02/23 04:02:35;;;;;;;;;;;;;;;11.69;54.83;98364.34;4932265;28;98516;-67
2024/02/23 04:05:03;;;;;;;;;;;;;;;11.68;54.78;98368.19;4907063;28;99563;-71
2024/02/23 04:07:30;;;;;;;;;;;;;;;11.67;54.93;98382.81;4928013;28;98161;-71
2024/02/23 04:09:57;;;;;;;;;;;;;;;11.67;54.93;98393.59;4917242;28;98262;-67
2024/02/23 04:12:25;;;;;;;;;;;;;;;11.66;54.76;98400.09;4924947;28;98230;-67
2024/02/23 04:14:55;;;;;;;;;;;;;;;11.66;54.87;98415.50;4904719;28;97972;-67
2024/02/23 04:17:22;;;;;;;;;;;;;;;11.65;54.89;98417.41;4911134;28;99609;-71
2024/02/23 04:19:49;;;;;;;;;;;;;;;11.64;54.72;98432.00;4949994;28;98156;-71
2024/02/23 04:22:16;;;;;;;;;;;;;;;11.63;54.90;98435.84;4933235;28;98186;-71
2024/02/23 04:24:45;;;;;;;;;;;;;;;11.63;54.99;98445.81;4925872;28;99236;-67
2024/02/23 04:27:12;;;;;;;;;;;;;;;11.61;54.91;98451.53;4912664;28;98755;-71
2024/02/23 04:29:41;;;;;;;;;;;;;;;11.60;54.85;98455.38;4914139;28;98111;-67
2024/02/23 04:32:11;;;;;;;;;;;;;;;11.60;54.79;98468.84;4942111;28;99520;-66
2024/02/23 04:34:40;;;;;;;;;;;;;;;11.58;54.84;98476.47;4913162;28;98707;-71
2024/02/23 04:37:06;;;;;;;;;;;;;;;11.57;54.80;98480.28;4905494;28;99120;-71
2024/02/23 04:39:37;;;;;;;;;;;;;;;11.55;55.14;98488.72;4932394;28;98089;-67
2024/02/23 04:42:08;;;;;;;;;;;;;;;11.55;54.82;98498.69;4940737;28;98485;-71
2024/02/23 04:44:35;;;;;;;;;;;;;;;11.53;54.82;98504.41;4907698;28;98466;-71
2024/02/23 04:47:03;;;;;;;;;;;;;;;11.52;54.85;98502.84;4931338;28;98759;-69
2024/02/23 04:49:30;;;;;;;;;;;;;;;11.51;54.78;98503.97;4912886;28;98676;-71
2024/02/23 04:51:57;;;;;;;;;;;;;;;11.51;54.78;98513.94;4939067;28;98336;-67
2024/02/23 04:54:24;;;;;;;;;;;;;;;11.50;54.80;98520.44;4928940;28;98390;-71
2024/02/23 04:56:50;;;;;;;;;;;;;;;11.49;54.85;98522.34;4927486;28;98290;-71
2024/02/23 04:59:17;;;;;;;;;;;;;;;11.49;54.84;98525.06;4907895;28;98011;-71
2024/02/23 05:01:43;;;;;;;;;;;;;;;11.48;54.85;98528.88;4910835;28;98319;-71
2024/02/23 05:04:10;;;;;;;;;;;;;;;11.47;54.73;98532.66;4911766;28;98345;-71
2024/02/23 05:06:36;;;;;;;;;;;;;;;11.46;54.87;98533.00;4909099;28;98973;-67
2024/02/23 05:09:03;;;;;;;;;;;;;;;11.45;54.83;98536.81;4926546;28;98122;-67
2024/02/23 05:11:30;;;;;;;;;;;;;;;11.44;54.75;98549.50;4912771;28;98167;-66
2024/02/23 05:13:56;;;;;;;;;;;;;;;11.43;54.83;98552.50;4930057;28;98367;-67
2024/02/23 05:16:22;;;;;;;;;;;;;;;11.41;54.91;98557.44;4914322;28;98038;-67
2024/02/23 05:18:48;;;;;;;;;;;;;;;11.39;54.83;98563.13;4929204;28;98445;-66
2024/02/23 05:21:19;;;;;;;;;;;;;;;11.38;54.70;98571.56;4929252;28;98110;-70
2024/02/23 05:23:46;;;;;;;;;;;;;;;11.37;54.71;98576.16;4911070;28;99839;-70
2024/02/23 05:26:13;;;;;;;;;;;;;;;11.35;54.70;98577.59;4923268;28;98317;-70
2024/02/23 05:28:39;;;;;;;;;;;;;;;11.34;54.84;98592.97;4920207;28;98025;-71
2024/02/23 05:31:09;;;;;;;;;;;;;;;11.33;54.78;98599.50;4906705;28;98512;-67
2024/02/23 05:33:37;;;;;;;;;;;;;;;11.32;54.88;98608.72;4917841;28;98048;-70
2024/02/23 05:36:04;;;;;;;;;;;;;;;11.30;54.72;98609.00;4915009;28;98791;-71
2024/02/23 05:38:31;;;;;;;;;;;;;;;11.30;54.96;98600.91;4932593;28;98297;-70
2024/02/23 05:40:58;;;;;;;;;;;;;;;11.28;54.90;98603.16;4919421;28;98273;-66
2024/02/23 05:43:25;;;;;;;;;;;;;;;11.29;54.81;98620.13;4935463;28;98572;-70
2024/02/23 05:45:52;;;;;;;;;;;;;;;11.27;54.65;98600.75;4901612;28;98385;-66
2024/02/23 05:48:20;;;;;;;;;;;;;;;11.27;54.76;98606.16;4933618;28;99900;-67
2024/02/23 05:50:46;;;;;;;;;;;;;;;11.26;54.40;98602.66;4905633;28;98335;-70
2024/02/23 05:53:13;;;;;;;;;;;;;;;11.25;54.82;98603.78;4938648;28;98204;-70
2024/02/23 05:55:39;;;;;;;;;;;;;;;11.24;54.83;98602.19;4936732;28;98215;-70
2024/02/23 05:58:05;;;;;;;;;;;;;;;11.23;54.71;98616.75;4920442;28;98186;-70
2024/02/23 06:00:33;;;;;;;;;;;;;;;11.22;54.90;98607.09;4938129;28;98371;-67
2024/02/23 06:03:03;;;;;;;;;;;;;;;11.21;54.64;98627.09;4935093;28;98386;-67
2024/02/23 06:05:30;;;;;;;;;;;;;;;11.20;54.86;98632.78;4924413;28;98879;-66
2024/02/23 06:07:58;;;;;;;;;;;;;;;11.21;54.73;98642.47;4912294;28;98134;-70
2024/02/23 06:10:25;;;;;;;;;;;;;;;11.19;54.95;98634.69;4942903;28;98041;-66
2024/02/23 06:12:53;;;;;;;;;;;;;;;11.19;54.84;98636.59;4906041;28;99031;-67
2024/02/23 06:15:20;;;;;;;;;;;;;;;11.17;54.67;98645.00;4922420;28;99125;-70
2024/02/23 06:17:48;;;;;;;;;;;;;;;11.17;54.85;98658.50;4903226;28;98798;-67
2024/02/23 06:20:16;;;;;;;;;;;;;;;11.18;54.89;98659.28;4908877;28;98349;-70
2024/02/23 06:22:44;;;;;;;;;;;;;;;11.17;54.73;98660.41;4907248;28;98227;-67
2024/02/23 06:25:12;;;;;;;;;;;;;;;11.16;54.68;98678.50;4903609;28;101633;-66
2024/02/23 06:27:40;;;;;;;;;;;;;;;11.16;54.74;98674.97;4924284;28;98160;-67
2024/02/23 06:30:08;;;;;;;;;;;;;;;11.13;54.73;98676.41;4906046;28;99193;-67
2024/02/23 06:32:37;;;;;;;;;;;;;;;11.13;54.70;98681.03;4939545;28;98438;-67
2024/02/23 06:35:06;;;;;;;;;;;;;;;11.13;54.71;98687.19;4922045;28;98091;-67
2024/02/23 06:37:37;;;;;;;;;;;;;;;11.12;54.91;98699.09;4941937;28;98095;-67
2024/02/23 06:40:04;;;;;;;;;;;;;;;11.12;54.49;98701.78;4920716;28;98340;-67
2024/02/23 06:42:34;;;;;;;;;;;;;;;11.13;54.64;98703.38;4911175;28;98739;-67
2024/02/23 06:45:01;;;;;;;;;;;;;;;11.16;54.63;98704.63;4907682;28;98574;-69
2024/02/23 06:47:29;;;;;;;;;;;;;;;11.17;54.77;98709.72;4924215;28;98053;-70
2024/02/23 06:49:56;;;;;;;;;;;;;;;11.18;54.66;98707.81;4910758;28;99048;-71
2024/02/23 06:52:23;;;;;;;;;;;;;;;11.19;54.46;98714.81;4925799;28;98374;-72
2024/02/23 06:54:50;;;;;;;;;;;;;;;11.20;54.48;98711.00;4941503;28;98515;-67
2024/02/23 06:57:17;;;;;;;;;;;;;;;11.22;54.69;98711.50;4919902;28;98608;-67
2024/02/23 06:59:44;;;;;;;;;;;;;;;11.23;54.56;98719.25;4922404;28;98304;-67
2024/02/23 07:02:12;;;;;;;;;;;;;;;11.26;54.64;98720.53;4925212;28;98259;-67
2024/02/23 07:04:38;;;;;;;;;;;;;;;11.28;54.64;98726.44;4935506;28;98097;-70
2024/02/23 07:07:07;;;;;;;;;;;;;;;11.31;54.52;98733.88;4918003;28;98181;-66
2024/02/23 07:09:34;;;;;;;;;;;;;;;11.33;54.55;98728.97;4920835;28;98467;-70
2024/02/23 07:12:00;;;;;;;;;;;;;;;11.37;54.48;98716.44;4905599;28;99974;-67
2024/02/23 07:14:27;;;;;;;;;;;;;;;11.41;54.34;98727.41;4906386;28;99511;-67
2024/02/23 07:16:55;;;;;;;;;;;;;;;11.46;54.36;98727.25;4911791;28;98054;-67
2024/02/23 07:19:23;;;;;;;;;;;;;;;11.50;54.42;98714.72;4904178;28;99539;-66
2024/02/23 07:21:51;;;;;;;;;;;;;;;11.53;54.14;98717.59;4927145;28;98245;-67
2024/02/23 07:24:21;;;;;;;;;;;;;;;11.60;54.20;98727.91;4923967;28;97881;-70
2024/02/23 07:26:47;;;;;;;;;;;;;;;11.68;54.28;98723.63;4909095;28;97882;-67
2024/02/23 07:29:14;;;;;;;;;;;;;;;11.77;54.01;98732.53;4903974;28;98443;-67
2024/02/23 07:31:41;;;;;;;;;;;;;;;11.92;53.92;98751.00;4904471;28;98193;-71
2024/02/23 07:34:08;;;;;;;;;;;;;;;12.15;53.75;98751.63;4932620;28;98059;-71
2024/02/23 07:36:35;;;;;;;;;;;;;;;12.14;53.96;98758.13;4932008;28;98402;-67
2024/02/23 07:39:02;;;;;;;;;;;;;;;12.14;54.14;98762.72;4912249;28;98906;-70
2024/02/23 07:41:30;;;;;;;;;;;;;;;12.15;53.90;98769.75;4920064;28;99832;-67
2024/02/23 07:43:57;;;;;;;;;;;;;;;12.15;53.98;98792.16;4904530;28;98381;-70
2024/02/23 07:46:26;;;;;;;;;;;;;;;12.17;54.14;98800.72;4915395;28;98290;-67
2024/02/23 07:48:54;;;;;;;;;;;;;;;12.21;54.08;98806.28;4920996;28;98177;-71
2024/02/23 07:51:21;;;;;;;;;;;;;;;12.23;53.91;98812.16;4916155;28;98432;-70
2024/02/23 07:53:48;;;;;;;;;;;;;;;12.24;53.92;98806.44;4904443;28;98316;-67
2024/02/23 07:56:14;;;;;;;;;;;;;;;12.27;54.13;98811.22;4917481;28;98440;-71
2024/02/23 07:58:41;;;;;;;;;;;;;;;12.29;54.11;98813.59;4935969;27;98445;-71
2024/02/23 08:01:08;;;;;;;;;;;;;;;12.29;54.11;98822.47;4919469;28;98507;-70
2024/02/23 08:03:35;;;;;;;;;;;;;;;12.31;53.98;98834.91;4923172;28;98284;-71
2024/02/23 08:06:02;;;;;;;;;;;;;;;12.33;54.20;98838.84;4906893;28;98307;-68
2024/02/23 08:08:28;;;;;;;;;;;;;;;12.37;54.18;98847.13;4905137;28;98146;-67
2024/02/23 08:10:55;;;;;;;;;;;;;;;12.37;54.08;98853.31;4910093;28;98096;-67
2024/02/23 08:13:24;;;;;;;;;;;;;;;12.37;53.88;98861.41;4910366;28;98914;-67
2024/02/23 08:15:52;;;;;;;;;;;;;;;12.38;54.21;98864.91;4907529;28;98490;-67
2024/02/23 08:18:18;;;;;;;;;;;;;;;12.38;54.17;98878.41;4899323;28;98619;-71
2024/02/23 08:20:46;;;;;;;;;;;;;;;12.40;53.64;98878.91;4910029;28;98215;-67
2024/02/23 08:23:15;;;;;;;;;;;;;;;12.43;54.08;98876.38;4907382;28;98437;-67
2024/02/23 08:25:42;;;;;;;;;;;;;;;12.48;53.91;98887.03;4943230;28;103005;-67
2024/02/23 08:28:09;;;;;;;;;;;;;;;12.51;53.92;98886.38;4915108;28;98564;-67
2024/02/23 08:30:35;;;;;;;;;;;;;;;12.53;53.66;98883.34;4908854;28;98026;-70
2024/02/23 08:33:02;;;;;;;;;;;;;;;12.57;53.86;98883.53;4914907;28;99094;-69
2024/02/23 08:35:28;;;;;;;;;;;;;;;12.58;54.15;98887.84;4903937;28;98013;-67
2024/02/23 08:37:54;;;;;;;;;;;;;;;12.58;53.78;98894.03;4905558;28;98173;-67
2024/02/23 08:40:21;;;;;;;;;;;;;;;12.56;54.19;98898.16;4905253;28;98079;-67
2024/02/23 08:42:47;;;;;;;;;;;;;;;12.53;54.06;98903.06;4902307;28;101501;-70
2024/02/23 08:45:16;;;;;;;;;;;;;;;12.53;54.23;98894.16;4904333;28;99094;-66
2024/02/23 08:47:44;;;;;;;;;;;;;;;12.53;54.29;98891.47;4914893;28;100240;-67
2024/02/23 08:50:11;;;;;;;;;;;;;;;12.53;54.26;98886.84;4924454;28;98081;-70
2024/02/23 08:52:38;;;;;;;;;;;;;;;12.54;54.05;98884.97;4924818;28;99359;-67
2024/02/23 08:55:05;;;;;;;;;;;;;;;12.57;54.05;98891.63;4917060;28;98566;-67
2024/02/23 08:57:33;;;;;;;;;;;;;;;12.61;54.15;98885.25;4904682;28;99027;-67
2024/02/23 09:00:01;;;;;;;;;;;;;;;12.67;54.08;98872.41;4917591;28;98591;-67
2024/02/23 09:02:28;;;;;;;;;;;;;;;12.74;54.05;98883.53;4904307;28;98828;-70
2024/02/23 09:04:55;;;;;;;;;;;;;;;12.90;53.92;98886.53;4922012;28;99395;-71
2024/02/23 09:07:21;;;;;;;;;;;;;;;13.11;53.43;98890.13;4906156;28;99241;-70
2024/02/23 09:09:50;;;;;;;;;;;;;;;13.41;53.04;98890.25;4927166;28;103865;-71
2024/02/23 09:12:17;;;;;;;;;;;;;;;13.90;52.77;98890.69;4921821;28;98338;-70
2024/02/23 09:14:44;;;;;;;;;;;;;;;14.62;52.15;98884.16;4925016;28;98139;-68
2024/02/23 09:17:12;;;;;;;;;;;;;;;15.44;51.43;98883.50;4922293;28;98058;-70
2024/02/23 09:19:38;;;;;;;;;;;;;;;16.11;51.06;98884.09;4903773;28;97991;-71
2024/02/23 09:22:06;;;;;;;;;;;;;;;17.09;50.28;98887.31;4920361;28;99496;-68
2024/02/23 09:24:33;;;;;;;;;;;;;;;17.85;50.14;98893.53;4956223;28;98679;-71
2024/02/23 09:27:00;;;;;;;;;;;;;;;18.49;50.03;98902.38;4921856;28;98052;-71
2024/02/23 09:29:28;;;;;;;;;;;;;;;19.15;49.67;98906.06;4906876;28;98959;-68
2024/02/23 09:31:54;;;;;;;;;;;;;;;20.17;49.01;98902.69;4909508;28;98262;-72
2024/02/23 09:34:21;;;;;;;;;;;;;;;21.09;48.52;98916.78;4919360;28;98436;-71
2024/02/23 09:36:47;;;;;;;;;;;;;;;22.06;48.28;98931.41;4916737;28;98120;-68
2024/02/23 09:39:15;;;;;;;;;;;;;;;23.70;46.94;98936.88;4934909;28;97927;-69
2024/02/23 09:41:43;;;;;;;;;;;;;;;25.78;45.75;98939.72;4901640;28;98564;-69
2024/02/23 09:44:10;;;;;;;;;;;;;;;28.05;43.93;98952.00;4911487;28;98022;-73
2024/02/23 09:46:40;;;;;;;;;;;;;;;29.13;43.89;98964.69;4925177;28;98165;-73
2024/02/23 09:49:06;;;;;;;;;;;;;;;29.88;44.01;98959.44;4938794;28;100919;-70
2024/02/23 09:51:33;;;;;;;;;;;;;;;29.38;45.30;98963.34;4951497;28;98219;-72
2024/02/23 09:53:59;;;;;;;;;;;;;;;29.09;45.86;98959.19;4904357;28;97982;-69
2024/02/23 09:56:28;;;;;;;;;;;;;;;29.19;46.23;98945.53;4911482;28;98382;-69
2024/02/23 09:58:58;;;;;;;;;;;;;;;29.52;46.09;98943.59;4920254;28;98309;-73
2024/02/23 10:01:32;;;;;;;;;;;;;;;29.80;46.19;98936.63;4908893;28;98179;-70
2024/02/23 10:04:01;;;;;;;;;;;;;;;30.35;46.08;98931.28;4929300;28;98063;-69
2024/02/23 10:06:27;;;;;;;;;;;;;;;30.91;45.93;98925.38;4906835;28;98450;-73
2024/02/23 10:08:54;;;;;;;;;;;;;;;31.54;45.37;98924.66;4923937;28;98300;-73
2024/02/23 10:11:23;;;;;;;;;;;;;;;32.28;44.55;98920.63;4924815;28;98121;-70
2024/02/23 10:13:49;;;;;;;;;;;;;;;32.83;44.50;98923.06;4918198;28;97845;-74
2024/02/23 10:16:22;;;;;;;;;;;;;;;33.56;44.03;98917.84;4919157;28;98226;-70
2024/02/23 10:18:51;;;;;;;;;;;;;;;34.41;43.75;98921.88;4911130;28;98418;-70
2024/02/23 10:21:18;;;;;;;;;;;;;;;35.68;42.46;98926.84;4920963;28;97772;-70
2024/02/23 10:23:50;;;;;;;;;;;;;;;37.24;41.40;98933.19;4919953;28;98369;-70
2024/02/23 10:26:20;;;;;;;;;;;;;;;38.27;41.21;98932.09;4929520;28;99279;-70
2024/02/23 10:28:47;;;;;;;;;;;;;;;38.37;41.43;98921.50;4940411;28;98629;-73
2024/02/23 10:31:14;;;;;;;;;;;;;;;39.52;41.02;98925.09;4920186;28;99904;-73
2024/02/23 10:33:42;;;;;;;;;;;;;;;40.16;40.96;98922.13;4909129;28;98235;-70
2024/02/23 10:36:09;;;;;;;;;;;;;;;40.42;41.17;98914.25;4928086;28;98183;-73
2024/02/23 10:38:36;;;;;;;;;;;;;;;38.71;43.10;98911.34;4913289;28;98182;-73
2024/02/23 10:41:03;;;;;;;;;;;;;;;37.77;43.85;98909.75;4921423;28;98477;-70
2024/02/23 10:43:44;;;;;;;;;;;;;;;37.53;44.37;98904.28;4908736;28;98223;-74
2024/02/23 10:46:14;;;;;;;;;;;;;;;37.31;44.34;98913.91;4903929;28;98214;-70
2024/02/23 10:48:45;;;;;;;;;;;;;;;37.05;44.95;98921.41;4935899;28;98235;-71
2024/02/23 10:51:13;;;;;;;;;;;;;;;38.25;43.24;98934.66;4924396;28;99481;-74
2024/02/23 10:53:43;;;;;;;;;;;;;;;39.21;42.19;98942.78;4906942;28;98087;-71
2024/02/23 10:56:09;;;;;;;;;;;;;;;39.02;43.04;98930.34;4924514;28;98324;-71
2024/02/23 10:58:36;;;;;;;;;;;;;;;37.70;44.10;98932.63;4953266;28;98266;-74
2024/02/23 11:01:06;;;;;;;;;;;;;;;36.98;45.22;98930.22;4900093;28;98064;-74
2024/02/23 11:03:33;;;;;;;;;;;;;;;37.31;44.56;98919.53;4927549;28;98053;-73
2024/02/23 11:06:05;;;;;;;;;;;;;;;35.89;46.36;98925.81;4924399;28;98305;-73
2024/02/23 11:08:36;;;;;;;;;;;;;;;34.47;47.36;98927.63;4905904;28;98191;-73
2024/02/23 11:11:15;;;;;;;;;;;;;;;32.89;49.25;98924.78;4908271;28;97994;-71
2024/02/23 11:13:47;;;;;;;;;;;;;;;31.57;50.08;98928.56;4925275;28;98211;-70
2024/02/23 11:16:23;;;;;;;;;;;;;;;30.52;50.85;98928.00;4925054;28;98521;-73
2024/02/23 11:19:12;;;;;;;;;;;;;;;29.58;51.33;98945.44;4914216;28;98273;-69
2024/02/23 11:21:40;;;;;;;;;;;;;;;28.68;51.65;98951.28;4926414;28;98113;-73
2024/02/23 11:24:07;;;;;;;;;;;;;;;28.03;52.21;98948.91;4909868;28;99029;-72
2024/02/23 11:26:38;;;;;;;;;;;;;;;27.51;52.26;98952.06;4906149;28;98418;-73
2024/02/23 11:29:14;;;;;;;;;;;;;;;27.22;51.74;98962.72;4911314;28;98177;-70
2024/02/23 11:31:46;;;;;;;;;;;;;;;26.78;51.89;98950.63;4908730;28;99293;-73
2024/02/23 11:34:14;;;;;;;;;;;;;;;26.64;51.81;98940.50;4906573;28;98560;-70
2024/02/23 11:36:41;;;;;;;;;;;;;;;26.62;51.66;98942.13;4917295;28;98227;-69
2024/02/23 11:39:07;;;;;;;;;;;;;;;26.65;51.27;98947.63;4920318;28;98515;-69
2024/02/23 11:41:34;;;;;;;;;;;;;;;26.48;51.45;98947.81;4917499;28;98850;-74
2024/02/23 11:44:03;;;;;;;;;;;;;;;26.27;51.38;98949.56;4907611;28;98331;-72
2024/02/23 11:46:29;;;;;;;;;;;;;;;25.89;51.67;98941.22;4926361;28;98780;-72
2024/02/23 11:48:56;;;;;;;;;;;;;;;25.51;52.03;98937.56;4905302;28;98134;-70
2024/02/23 11:51:23;;;;;;;;;;;;;;;25.25;52.17;98938.09;4917492;28;98341;-72
2024/02/23 11:53:49;;;;;;;;;;;;;;;25.03;52.04;98948.41;4901155;28;98871;-72
2024/02/23 11:56:17;;;;;;;;;;;;;;;24.82;52.30;98949.28;4923515;28;103747;-72
2024/02/23 11:58:43;;;;;;;;;;;;;;;24.57;52.19;98943.88;4932059;28;98389;-72
2024/02/23 12:01:10;;;;;;;;;;;;;;;24.27;52.47;98941.53;4915178;28;98014;-72
2024/02/23 12:03:40;;;;;;;;;;;;;;;23.97;52.44;98943.56;4908110;28;98143;-69
2024/02/23 12:06:09;;;;;;;;;;;;;;;23.66;52.86;98941.56;4921777;28;98289;-69
2024/02/23 12:08:38;;;;;;;;;;;;;;;23.52;52.51;98940.34;4938647;28;100002;-72
2024/02/23 12:11:10;;;;;;;;;;;;;;;23.45;52.40;98947.78;4939247;28;99396;-72
2024/02/23 12:13:37;;;;;;;;;;;;;;;23.31;52.49;98945.81;4907550;28;99275;-72
2024/02/23 12:16:04;;;;;;;;;;;;;;;23.22;52.23;98956.38;4916861;28;98192;-69
2024/02/23 12:18:35;;;;;;;;;;;;;;;23.08;52.50;98965.38;4915474;28;98125;-69
2024/02/23 12:21:02;;;;;;;;;;;;;;;22.97;52.18;98962.56;4918605;28;98194;-73
2024/02/23 12:23:45;;;;;;;;;;;;;;;22.83;52.35;98961.69;4921379;28;98546;-72
2024/02/23 12:26:17;;;;;;;;;;;;;;;22.65;52.61;98956.13;4907122;28;99246;-69
2024/02/23 12:28:44;;;;;;;;;;;;;;;22.55;52.62;98961.16;4927806;28;98051;-69
2024/02/23 12:31:11;;;;;;;;;;;;;;;22.42;52.24;98962.66;4921410;28;98228;-69
2024/02/23 12:33:41;;;;;;;;;;;;;;;22.35;52.55;98965.34;4915456;28;98426;-72
2024/02/23 12:36:07;;;;;;;;;;;;;;;22.26;52.53;98965.69;4902156;28;98486;-72
2024/02/23 12:38:34;;;;;;;;;;;;;;;22.16;52.23;98963.63;4921353;28;98616;-72
2024/02/23 12:41:02;;;;;;;;;;;;;;;22.04;52.52;98970.19;4927325;28;98277;-69
2024/02/23 12:43:31;;;;;;;;;;;;;;;21.94;52.46;98964.63;4926328;28;98075;-69
2024/02/23 12:46:03;;;;;;;;;;;;;;;21.78;52.66;98962.94;4922591;28;99400;-69
2024/02/23 12:48:30;;;;;;;;;;;;;;;21.69;52.43;98956.97;4953108;27;98319;-68